YKY weather

Kindersley Airport
Kindersley, Saskatchewan, Canada

Public forecast

Using degrees Celsius for public forecast. Weather courtesy of forecast.io.

Current aviation weather report (METAR) for Kindersley Airport

Retrieved 2020/05/30 18:00 UTC (41 minutes ago):

CYKY 301800Z 17022G31KT 15SM FEW100 FEW250 24/04 A3007 RMK AC1CI1 AC TR SLP184 DENSITY ALT 3700FT

Closest aviation forecast (TAF) to Kindersley Airport

Closest forecast is North Battleford Airport, 82.7 nm (153.2 km) NNE. Retrieved 2020/05/30 18:42 UTC (0 seconds ago):

TAF CYQW 301738Z 3018/3106 13015KT P6SM FEW080 BKN150 TEMPO 3018/3023 BKN080 FM310300 14015KT P6SM SKC RMK FCST BASED ON AUTO OBS NXT FCST BY 310000Z